Time;durP1;ratioP1;P1;durP2;ratioP2;P2;SDS_P1;SDS_P2;PMS_P1;PMS_P2;Temp;Humidity;BMP_temperature;BMP_pressure;BME280_temperature;BME280_humidity;BME280_pressure;Samples;Min_cycle;Max_cycle;Signal;HPM_P1;HPM_P2
2024/03/02 00:00:24;;;;;;;32.67;21.83;;;;;22.10;98926.00;;;;2048148;28;20220;-66
2024/03/02 00:01:24;;;;;;;31.38;21.55;;;;;22.10;99002.00;;;;2036807;28;20207;-66
2024/03/02 00:02:25;;;;;;;32.00;21.73;;;;;22.10;98994.00;;;;2047426;28;20309;-66
2024/03/02 00:03:25;;;;;;;31.40;23.27;;;;;22.10;98998.00;;;;2053221;28;20215;-65
2024/03/02 00:04:25;;;;;;;30.80;21.07;;;;;22.10;98992.00;;;;2047286;28;20204;-65
2024/03/02 00:05:26;;;;;;;31.80;21.77;;;;;22.10;98999.00;;;;2055296;28;20267;-65
2024/03/02 00:06:26;;;;;;;31.23;20.87;;;;;22.10;98987.00;;;;2034429;28;20208;-66
2024/03/02 00:07:26;;;;;;;27.10;19.97;;;;;22.10;99005.00;;;;2034506;29;20237;-66
2024/03/02 00:08:27;;;;;;;29.23;20.93;;;;;22.10;99000.00;;;;2041164;28;20209;-66
2024/03/02 00:09:27;;;;;;;33.27;21.60;;;;;22.10;99002.00;;;;2048125;28;20232;-66
2024/03/02 00:10:40;;;;;;;30.67;20.90;;;;;22.10;99013.00;;;;2054477;28;20218;-66
2024/03/02 00:11:40;;;;;;;29.83;20.73;;;;;22.10;99000.00;;;;2045438;28;20223;-66
2024/03/02 00:12:40;;;;;;;28.07;20.63;;;;;22.00;99004.00;;;;2050858;28;20553;-66
2024/03/02 00:13:41;;;;;;;25.50;19.30;;;;;22.00;99001.00;;;;2051086;28;20674;-66
2024/03/02 00:14:41;;;;;;;31.33;20.60;;;;;22.00;98982.00;;;;2047774;28;20216;-66
2024/03/02 00:15:46;;;;;;;27.83;19.77;;;;;22.00;98990.00;;;;2054663;28;20719;-66
2024/03/02 00:16:46;;;;;;;29.30;20.73;;;;;22.00;98992.00;;;;2044740;28;20806;-66
2024/03/02 00:17:46;;;;;;;29.57;20.13;;;;;22.00;98987.00;;;;2050830;28;20219;-66
2024/03/02 00:18:46;;;;;;;27.47;20.17;;;;;22.00;98991.00;;;;2046878;28;20256;-66
2024/03/02 00:19:47;;;;;;;28.47;19.63;;;;;22.00;99001.00;;;;2046722;28;20224;-66
2024/03/02 00:20:47;;;;;;;25.57;19.17;;;;;22.00;99003.00;;;;2054770;28;20215;-66
2024/03/02 00:21:47;;;;;;;27.07;19.73;;;;;22.00;98998.00;;;;2036912;28;20239;-66
2024/03/02 00:22:48;;;;;;;26.30;18.70;;;;;22.00;98989.00;;;;2054314;28;20215;-66
2024/03/02 00:23:51;;;;;;;29.77;20.40;;;;;22.00;98998.00;;;;2046806;28;20273;-66
2024/03/02 00:24:52;;;;;;;22.85;17.90;;;;;22.00;98996.00;;;;2042853;28;20235;-66
2024/03/02 00:25:53;;;;;;;28.60;19.40;;;;;22.00;98986.00;;;;2051750;28;20227;-66
2024/03/02 00:26:54;;;;;;;26.25;18.80;;;;;22.00;98986.00;;;;2042564;28;20683;-66
2024/03/02 00:27:54;;;;;;;28.13;19.47;;;;;22.00;98982.00;;;;2046523;28;20212;-66
2024/03/02 00:28:56;;;;;;;25.13;18.70;;;;;22.00;98985.00;;;;2042399;28;20220;-66
2024/03/02 00:29:57;;;;;;;25.73;19.27;;;;;22.00;98978.00;;;;2045448;28;20268;-66
2024/03/02 00:31:03;;;;;;;27.33;19.13;;;;;22.00;98981.00;;;;2047884;28;20631;-66
2024/03/02 00:32:04;;;;;;;27.13;18.65;;;;;22.00;99003.00;;;;2039355;28;20224;-66
2024/03/02 00:33:07;;;;;;;26.07;18.23;;;;;22.00;98982.00;;;;2047129;28;20248;-66
2024/03/02 00:34:07;;;;;;;25.70;18.35;;;;;22.00;98997.00;;;;2046699;28;20222;-66
2024/03/02 00:35:07;;;;;;;29.97;19.27;;;;;21.90;98988.00;;;;2046482;28;20710;-66
2024/03/02 00:36:08;;;;;;;23.53;17.37;;;;;21.90;98978.00;;;;2047217;28;20236;-66
2024/03/02 00:37:08;;;;;;;24.47;16.63;;;;;21.90;98979.00;;;;2036882;28;20244;-66
2024/03/02 00:38:08;;;;;;;25.30;17.33;;;;;21.90;98979.00;;;;2041269;28;20209;-66
2024/03/02 00:39:09;;;;;;;23.40;16.67;;;;;21.90;98974.00;;;;2042205;28;20220;-66
2024/03/02 00:40:10;;;;;;;24.57;17.60;;;;;21.90;98986.00;;;;2038984;29;20213;-66
2024/03/02 00:41:19;;;;;;;24.17;17.17;;;;;21.90;98973.00;;;;2031156;29;20222;-66
2024/03/02 00:42:19;;;;;;;22.70;18.08;;;;;21.90;98977.00;;;;2037718;29;20255;-66
2024/03/02 00:43:42;;;;;;;23.47;17.03;;;;;21.90;98972.00;;;;2037894;29;20224;-66
2024/03/02 00:44:43;;;;;;;24.38;16.45;;;;;22.00;98968.00;;;;2048903;28;20231;-66
2024/03/02 00:45:43;;;;;;;21.50;16.40;;;;;21.90;98964.00;;;;2047028;28;20209;-66
2024/03/02 00:46:43;;;;;;;23.80;16.20;;;;;21.90;98968.00;;;;2040112;28;20225;-66
2024/03/02 00:47:44;;;;;;;24.40;17.80;;;;;21.90;98971.00;;;;2046903;28;20239;-66
2024/03/02 00:48:55;;;;;;;27.93;16.87;;;;;21.90;98975.00;;;;2054584;28;20220;-66
2024/03/02 00:49:55;;;;;;;23.50;15.63;;;;;21.90;98968.00;;;;2049982;28;20238;-66
2024/03/02 00:50:55;;;;;;;23.70;16.00;;;;;21.90;98964.00;;;;2045928;28;20228;-66
2024/03/02 00:51:56;;;;;;;20.40;15.80;;;;;21.90;98968.00;;;;2036352;28;20700;-66
2024/03/02 00:52:56;;;;;;;22.60;16.03;;;;;21.90;98970.00;;;;2055024;28;20208;-66
2024/03/02 00:53:59;;;;;;;21.60;15.73;;;;;21.90;98963.00;;;;2050573;28;20223;-66
2024/03/02 00:54:59;;;;;;;22.08;15.88;;;;;21.80;98961.00;;;;2049567;28;20204;-66
2024/03/02 00:55:59;;;;;;;22.27;16.17;;;;;21.80;98958.00;;;;2046618;28;20683;-66
2024/03/02 00:57:00;;;;;;;22.40;15.40;;;;;21.80;98963.00;;;;2029092;29;20720;-66
2024/03/02 00:58:00;;;;;;;20.47;14.83;;;;;21.80;98904.00;;;;2025433;29;20225;-66
2024/03/02 00:59:00;;;;;;;24.03;15.50;;;;;21.80;98915.00;;;;2041717;28;20201;-66
2024/03/02 01:00:01;;;;;;;18.87;14.23;;;;;21.80;98962.00;;;;2049744;28;20204;-66
2024/03/02 01:01:01;;;;;;;21.57;15.07;;;;;21.60;98964.00;;;;2046974;28;20204;-66
2024/03/02 01:02:02;;;;;;;20.63;15.30;;;;;21.80;98963.00;;;;2039606;28;20786;-66
2024/03/02 01:03:03;;;;;;;17.87;13.80;;;;;21.80;98961.00;;;;2052585;28;20239;-66
2024/03/02 01:04:05;;;;;;;18.75;13.10;;;;;21.80;98967.00;;;;2046936;28;20232;-66
2024/03/02 01:05:05;;;;;;;21.90;13.98;;;;;21.80;98967.00;;;;2048392;28;20263;-66
2024/03/02 01:06:07;;;;;;;19.40;14.33;;;;;21.80;98967.00;;;;2054906;28;20625;-66
2024/03/02 01:07:07;;;;;;;19.80;14.68;;;;;21.80;98906.00;;;;2036823;28;20227;-66
2024/03/02 01:08:08;;;;;;;21.43;13.90;;;;;21.80;98970.00;;;;2046397;28;20781;-66
2024/03/02 01:09:08;;;;;;;20.45;14.52;;;;;21.60;98977.00;;;;2054282;28;20643;-66
2024/03/02 01:10:10;;;;;;;19.70;14.13;;;;;21.80;98975.00;;;;2048003;28;20248;-66
2024/03/02 01:11:11;;;;;;;20.63;14.05;;;;;21.80;98972.00;;;;2047728;28;20235;-66
2024/03/02 01:12:11;;;;;;;17.63;12.43;;;;;21.80;98973.00;;;;2043648;28;20695;-66
2024/03/02 01:13:11;;;;;;;20.07;13.70;;;;;21.80;98978.00;;;;2051451;28;20216;-66
2024/03/02 01:14:12;;;;;;;17.57;13.47;;;;;21.80;98931.00;;;;2044428;28;20279;-66
2024/03/02 01:15:12;;;;;;;17.43;12.60;;;;;21.80;98966.00;;;;2045241;28;20268;-66
2024/03/02 01:16:12;;;;;;;18.80;13.57;;;;;21.80;98968.00;;;;2047804;28;20575;-66
2024/03/02 01:17:13;;;;;;;19.50;14.27;;;;;21.80;98969.00;;;;2038873;28;20215;-66
2024/03/02 01:18:14;;;;;;;16.52;12.63;;;;;21.80;98972.00;;;;2054818;28;20211;-66
2024/03/02 01:19:14;;;;;;;20.13;13.47;;;;;21.80;98969.00;;;;2039092;28;20643;-66
2024/03/02 01:20:15;;;;;;;16.30;12.30;;;;;21.80;98975.00;;;;2046254;28;20212;-66
2024/03/02 01:21:15;;;;;;;18.83;13.17;;;;;21.50;98967.00;;;;2043414;28;20212;-66
2024/03/02 01:22:15;;;;;;;19.43;13.00;;;;;21.80;98973.00;;;;2041160;28;20212;-66
2024/03/02 01:23:16;;;;;;;18.40;12.47;;;;;21.80;98985.00;;;;2056786;28;20247;-66
2024/03/02 01:24:16;;;;;;;15.27;12.70;;;;;21.80;98977.00;;;;2049657;28;20566;-66
2024/03/02 01:25:17;;;;;;;16.10;11.80;;;;;21.70;98978.00;;;;2046725;28;20595;-66
2024/03/02 01:26:17;;;;;;;17.63;11.90;;;;;21.80;98982.00;;;;2039498;28;20505;-66
2024/03/02 01:27:18;;;;;;;18.83;13.27;;;;;21.80;98980.00;;;;2038299;28;20483;-66
2024/03/02 01:28:20;;;;;;;16.27;11.70;;;;;21.80;98980.00;;;;2042784;29;20216;-66
2024/03/02 01:29:20;;;;;;;19.30;13.45;;;;;21.70;98974.00;;;;2034560;29;20461;-66
2024/03/02 01:30:21;;;;;;;18.73;12.67;;;;;21.70;98968.00;;;;2047159;28;20228;-65
2024/03/02 01:31:21;;;;;;;17.00;11.93;;;;;21.70;98975.00;;;;2037881;28;20279;-65
2024/03/02 01:32:21;;;;;;;21.13;11.97;;;;;21.70;98972.00;;;;2048097;28;20889;-65
2024/03/02 01:33:22;;;;;;;14.30;11.43;;;;;21.70;98978.00;;;;2053997;28;20757;-65
2024/03/02 01:34:22;;;;;;;18.47;11.13;;;;;21.70;98971.00;;;;2048254;28;20223;-65
2024/03/02 01:35:22;;;;;;;14.80;11.30;;;;;21.70;98971.00;;;;2047845;28;20301;-65
2024/03/02 01:36:23;;;;;;;18.17;12.77;;;;;21.70;98979.00;;;;2029059;28;20224;-65
2024/03/02 01:37:24;;;;;;;17.37;11.47;;;;;21.70;98962.00;;;;2047828;28;20224;-65
2024/03/02 01:38:24;;;;;;;15.50;12.07;;;;;21.70;98974.00;;;;2047729;28;20467;-65
2024/03/02 01:39:24;;;;;;;18.23;11.37;;;;;21.60;98966.00;;;;2043525;28;20240;-65
2024/03/02 01:40:28;;;;;;;16.30;11.50;;;;;21.70;98967.00;;;;2046043;28;20223;-65
2024/03/02 01:41:28;;;;;;;13.23;10.50;;;;;21.70;98964.00;;;;2031172;28;20321;-65
2024/03/02 01:42:29;;;;;;;16.20;10.67;;;;;21.70;98968.00;;;;2047490;28;20684;-65
2024/03/02 01:43:29;;;;;;;15.17;9.93;;;;;21.70;98961.00;;;;2046411;28;20563;-66
2024/03/02 01:44:29;;;;;;;15.17;10.50;;;;;21.70;98958.00;;;;2049243;28;20467;-66
2024/03/02 01:45:30;;;;;;;16.03;10.40;;;;;21.70;98955.00;;;;2054497;28;20247;-66
2024/03/02 01:46:30;;;;;;;13.97;10.00;;;;;21.70;98962.00;;;;2034750;28;20832;-66
2024/03/02 01:47:30;;;;;;;16.13;11.60;;;;;21.70;98962.00;;;;2054277;28;20216;-66
2024/03/02 01:48:31;;;;;;;16.37;10.93;;;;;21.70;98833.00;;;;2051357;28;20223;-67
2024/03/02 01:49:33;;;;;;;15.07;10.63;;;;;21.70;98961.00;;;;2047597;28;20646;-66
2024/03/02 01:50:33;;;;;;;13.35;9.43;;;;;21.70;98957.00;;;;2041257;28;20224;-66
2024/03/02 01:51:33;;;;;;;14.80;10.53;;;;;21.70;98922.00;;;;2031142;28;20260;-66
2024/03/02 01:52:34;;;;;;;13.93;10.70;;;;;21.70;98950.00;;;;2036125;29;20284;-66
2024/03/02 01:53:34;;;;;;;13.77;10.10;;;;;21.60;98947.00;;;;2044823;28;20256;-66
2024/03/02 01:54:35;;;;;;;14.23;10.13;;;;;21.60;98951.00;;;;2047173;28;20270;-66
2024/03/02 01:55:35;;;;;;;14.37;10.30;;;;;21.70;98963.00;;;;2046333;28;20776;-66
2024/03/02 01:56:35;;;;;;;14.63;10.57;;;;;21.70;98950.00;;;;2041466;28;20664;-66
2024/03/02 01:57:36;;;;;;;12.47;9.43;;;;;21.70;98955.00;;;;2055749;28;20247;-66
2024/03/02 01:58:36;;;;;;;14.27;10.20;;;;;21.70;98959.00;;;;2053068;28;20215;-66
2024/03/02 01:59:36;;;;;;;14.50;10.80;;;;;21.60;98948.00;;;;2049212;28;20216;-66
2024/03/02 02:00:37;;;;;;;15.47;10.20;;;;;21.60;98938.00;;;;2054541;28;20239;-66
2024/03/02 02:01:37;;;;;;;14.40;9.60;;;;;21.60;98943.00;;;;2046711;28;20231;-66
2024/03/02 02:02:37;;;;;;;15.90;9.13;;;;;21.60;98956.00;;;;2054591;28;20699;-66
2024/03/02 02:03:38;;;;;;;15.60;9.23;;;;;21.60;98950.00;;;;2046694;28;20258;-66
2024/03/02 02:04:38;;;;;;;13.17;9.87;;;;;21.70;98954.00;;;;2048825;28;20278;-66
2024/03/02 02:05:38;;;;;;;14.17;10.30;;;;;21.70;98952.00;;;;2047012;28;20270;-66
2024/03/02 02:06:39;;;;;;;14.00;9.57;;;;;21.60;98952.00;;;;2042217;28;20225;-66
2024/03/02 02:07:41;;;;;;;13.30;8.97;;;;;21.60;98954.00;;;;2053925;28;20317;-66
2024/03/02 02:08:41;;;;;;;11.85;8.90;;;;;21.60;98956.00;;;;2051844;28;20204;-66
2024/03/02 02:09:42;;;;;;;11.50;8.77;;;;;21.60;98945.00;;;;2045508;28;20200;-66
2024/03/02 02:10:42;;;;;;;15.00;9.40;;;;;21.60;98949.00;;;;2048878;28;20216;-66
2024/03/02 02:11:42;;;;;;;12.00;8.40;;;;;21.60;98941.00;;;;2039526;28;20703;-66
2024/03/02 02:12:43;;;;;;;11.80;9.03;;;;;21.60;98951.00;;;;2046789;28;20217;-66
2024/03/02 02:13:43;;;;;;;12.90;9.20;;;;;21.60;98935.00;;;;2048227;28;20230;-66
2024/03/02 02:14:50;;;;;;;11.70;8.57;;;;;21.60;98941.00;;;;2045518;28;20228;-66
2024/03/02 02:15:50;;;;;;;11.18;8.27;;;;;21.60;98933.00;;;;2045770;28;20310;-66
2024/03/02 02:16:52;;;;;;;13.73;9.70;;;;;21.60;98935.00;;;;2042522;28;20585;-66
2024/03/02 02:17:53;;;;;;;13.93;9.02;;;;;21.60;98923.00;;;;2056211;28;20203;-66
2024/03/02 02:18:53;;;;;;;13.70;9.30;;;;;21.60;98926.00;;;;2056280;28;20211;-66
2024/03/02 02:19:53;;;;;;;13.83;9.27;;;;;21.60;98941.00;;;;2052875;28;20893;-66
2024/03/02 02:20:54;;;;;;;10.40;7.80;;;;;21.60;98938.00;;;;2048527;28;20708;-66
2024/03/02 02:21:55;;;;;;;11.40;8.03;;;;;21.50;98944.00;;;;2038259;28;21450;-66
2024/03/02 02:22:58;;;;;;;10.37;7.77;;;;;21.60;98940.00;;;;2046624;28;20219;-66
2024/03/02 02:23:58;;;;;;;10.73;8.35;;;;;21.60;98937.00;;;;2047206;28;20466;-66
2024/03/02 02:24:59;;;;;;;9.73;7.20;;;;;21.60;98956.00;;;;2045410;28;20259;-66
2024/03/02 02:25:59;;;;;;;11.47;8.37;;;;;21.50;98946.00;;;;2047978;29;20742;-66
2024/03/02 02:26:59;;;;;;;10.90;7.47;;;;;21.50;98935.00;;;;2038679;28;20216;-66
2024/03/02 02:28:00;;;;;;;10.83;7.00;;;;;21.40;98938.00;;;;2048790;28;20247;-66
2024/03/02 02:29:00;;;;;;;10.20;7.90;;;;;21.50;98933.00;;;;2046511;28;20219;-66
2024/03/02 02:30:01;;;;;;;12.43;8.10;;;;;21.50;98949.00;;;;2048793;28;20212;-66
2024/03/02 02:31:01;;;;;;;12.33;7.77;;;;;21.50;98945.00;;;;2048539;28;20299;-66
2024/03/02 02:32:02;;;;;;;9.43;6.77;;;;;21.60;98942.00;;;;2038698;28;20243;-66
2024/03/02 02:33:02;;;;;;;9.60;6.80;;;;;21.50;98951.00;;;;2047772;28;20208;-66
2024/03/02 02:34:03;;;;;;;11.47;7.60;;;;;21.60;98956.00;;;;2047084;28;20208;-66
2024/03/02 02:35:04;;;;;;;11.23;7.50;;;;;21.60;98945.00;;;;2048279;28;20220;-66
2024/03/02 02:36:05;;;;;;;9.98;7.63;;;;;21.60;98863.00;;;;2047179;28;20324;-66
2024/03/02 02:37:05;;;;;;;10.23;7.60;;;;;21.50;98907.00;;;;2039247;28;20225;-66
2024/03/02 02:38:06;;;;;;;10.73;7.50;;;;;21.50;98953.00;;;;2048605;28;20210;-66
2024/03/02 02:39:07;;;;;;;11.60;7.37;;;;;21.50;98945.00;;;;2055434;28;20218;-66
2024/03/02 02:40:08;;;;;;;9.38;7.05;;;;;21.50;98946.00;;;;2047889;28;20448;-66
2024/03/02 02:41:09;;;;;;;11.85;7.43;;;;;21.50;98919.00;;;;2038677;29;20215;-66
2024/03/02 02:42:09;;;;;;;11.00;7.33;;;;;21.40;98945.00;;;;2036303;29;20212;-66
2024/03/02 02:43:10;;;;;;;10.30;7.20;;;;;21.50;98943.00;;;;2047944;28;20321;-66
2024/03/02 02:44:12;;;;;;;10.07;7.30;;;;;21.50;98949.00;;;;2048552;28;20220;-66
2024/03/02 02:45:14;;;;;;;10.60;6.97;;;;;21.50;98943.00;;;;2048600;28;20223;-66
2024/03/02 02:46:14;;;;;;;8.70;6.30;;;;;21.50;98947.00;;;;2045613;28;20817;-66
2024/03/02 02:47:14;;;;;;;10.73;7.30;;;;;21.50;98947.00;;;;2039312;28;20212;-66
2024/03/02 02:48:15;;;;;;;9.73;6.83;;;;;21.50;98951.00;;;;2044544;28;20272;-66
2024/03/02 02:49:15;;;;;;;9.50;7.00;;;;;21.50;98949.00;;;;2047667;28;20212;-66
2024/03/02 02:50:15;;;;;;;9.57;6.70;;;;;21.50;98936.00;;;;2053663;28;20223;-66
2024/03/02 02:51:16;;;;;;;10.47;7.07;;;;;21.50;98926.00;;;;2055723;28;20212;-66
2024/03/02 02:52:17;;;;;;;10.13;6.80;;;;;21.50;98939.00;;;;2046210;28;20215;-66
2024/03/02 02:53:18;;;;;;;11.07;6.67;;;;;21.50;98945.00;;;;2047389;28;20807;-66
2024/03/02 02:54:18;;;;;;;9.87;6.83;;;;;21.50;98922.00;;;;2047299;28;20455;-66
2024/03/02 02:55:18;;;;;;;8.47;6.33;;;;;21.10;98933.00;;;;2046096;28;20242;-66
2024/03/02 02:56:19;;;;;;;10.13;6.87;;;;;21.50;98929.00;;;;2035386;29;20373;-66
2024/03/02 02:57:19;;;;;;;9.40;6.00;;;;;21.50;98946.00;;;;2043781;29;20227;-66
2024/03/02 02:58:19;;;;;;;9.80;7.03;;;;;21.50;98945.00;;;;2048580;28;20676;-66
2024/03/02 02:59:20;;;;;;;9.63;6.60;;;;;21.50;98797.00;;;;2055868;28;20748;-66
2024/03/02 03:00:22;;;;;;;9.03;6.60;;;;;21.50;98940.00;;;;2055431;28;20852;-66
2024/03/02 03:01:22;;;;;;;8.65;6.25;;;;;21.40;98948.00;;;;2046029;28;20299;-66
2024/03/02 03:02:23;;;;;;;9.73;6.47;;;;;21.50;98929.00;;;;2053453;28;20230;-66
2024/03/02 03:03:23;;;;;;;8.43;6.53;;;;;21.40;98951.00;;;;2055643;28;20719;-66
2024/03/02 03:04:23;;;;;;;10.43;6.30;;;;;21.40;98935.00;;;;2054191;28;20915;-66
2024/03/02 03:05:23;;;;;;;10.23;6.50;;;;;21.40;98931.00;;;;2054572;28;20630;-66
2024/03/02 03:06:24;;;;;;;11.53;7.37;;;;;21.50;98931.00;;;;2046141;28;20220;-66
2024/03/02 03:07:24;;;;;;;8.70;6.47;;;;;21.50;98927.00;;;;2055141;28;20208;-66
2024/03/02 03:08:25;;;;;;;7.20;5.33;;;;;21.40;98931.00;;;;2051917;28;20212;-66
2024/03/02 03:09:25;;;;;;;8.80;5.53;;;;;21.50;98929.00;;;;2056274;28;20706;-66
2024/03/02 03:10:27;;;;;;;10.43;6.23;;;;;21.40;98923.00;;;;2054974;28;20235;-66
2024/03/02 03:11:27;;;;;;;7.90;5.45;;;;;21.40;98926.00;;;;2046431;28;20228;-66
2024/03/02 03:12:28;;;;;;;8.07;5.67;;;;;21.40;98922.00;;;;2055616;28;20802;-66
2024/03/02 03:13:28;;;;;;;8.80;5.87;;;;;21.40;98927.00;;;;2055547;28;20254;-66
2024/03/02 03:14:28;;;;;;;9.40;5.93;;;;;21.40;98918.00;;;;2055395;28;20223;-66
2024/03/02 03:15:29;;;;;;;9.00;6.20;;;;;21.40;98928.00;;;;2056368;28;20223;-66
2024/03/02 03:16:29;;;;;;;9.80;5.90;;;;;21.40;98928.00;;;;2046639;28;20227;-66
2024/03/02 03:17:29;;;;;;;9.07;5.30;;;;;21.40;98902.00;;;;2054566;28;20215;-66
2024/03/02 03:18:30;;;;;;;8.50;5.67;;;;;21.40;98851.00;;;;2055218;28;20227;-66
2024/03/02 03:19:30;;;;;;;7.50;5.27;;;;;21.40;98933.00;;;;2054460;28;20573;-66
2024/03/02 03:20:31;;;;;;;7.47;5.40;;;;;21.40;98933.00;;;;2055692;28;20247;-66
2024/03/02 03:21:31;;;;;;;8.83;5.30;;;;;21.40;98933.00;;;;2046243;28;20699;-66
2024/03/02 03:22:32;;;;;;;8.60;6.57;;;;;21.40;98937.00;;;;2055251;28;20220;-66
2024/03/02 03:23:32;;;;;;;9.07;5.83;;;;;21.40;98928.00;;;;2054782;28;20304;-66
2024/03/02 03:24:33;;;;;;;7.93;5.37;;;;;21.40;98929.00;;;;2055471;28;20218;-66
2024/03/02 03:25:33;;;;;;;6.70;5.27;;;;;21.40;98929.00;;;;2056159;28;20223;-66
2024/03/02 03:26:36;;;;;;;7.33;4.83;;;;;21.40;98938.00;;;;2045520;28;20224;-66
2024/03/02 03:27:36;;;;;;;7.97;5.55;;;;;21.40;98943.00;;;;2056224;28;20243;-66
2024/03/02 03:28:37;;;;;;;8.10;5.30;;;;;21.40;98944.00;;;;2047564;28;20216;-66
2024/03/02 03:29:37;;;;;;;7.50;5.00;;;;;21.40;98934.00;;;;2046931;28;20220;-66
2024/03/02 03:30:38;;;;;;;7.17;5.67;;;;;21.40;98937.00;;;;2056258;28;20219;-66
2024/03/02 03:31:38;;;;;;;8.03;5.00;;;;;21.40;98810.00;;;;2043773;28;20332;-66
2024/03/02 03:32:38;;;;;;;6.67;4.60;;;;;21.40;98939.00;;;;2045732;28;20236;-66
2024/03/02 03:33:39;;;;;;;8.20;5.27;;;;;21.40;98938.00;;;;2049007;28;20336;-66
2024/03/02 03:34:40;;;;;;;7.33;5.13;;;;;21.40;98934.00;;;;2047262;28;20235;-66
2024/03/02 03:35:40;;;;;;;7.03;4.97;;;;;21.40;98937.00;;;;2047682;28;20583;-66
2024/03/02 03:36:40;;;;;;;7.13;4.67;;;;;21.40;98936.00;;;;2044640;28;20474;-66
2024/03/02 03:37:41;;;;;;;6.57;4.80;;;;;21.40;98946.00;;;;2055999;28;20223;-66
2024/03/02 03:38:41;;;;;;;7.03;4.90;;;;;21.40;98949.00;;;;2054302;28;20211;-66
2024/03/02 03:39:41;;;;;;;9.40;5.30;;;;;21.40;98945.00;;;;2056056;28;20578;-66
2024/03/02 03:40:42;;;;;;;7.90;5.10;;;;;21.40;98951.00;;;;2054511;28;20600;-66
2024/03/02 03:41:42;;;;;;;7.87;5.07;;;;;21.40;98946.00;;;;2045968;28;20856;-66
2024/03/02 03:42:42;;;;;;;7.70;4.97;;;;;21.40;98944.00;;;;2056300;28;20240;-66
2024/03/02 03:43:43;;;;;;;8.87;4.83;;;;;21.40;98957.00;;;;2054370;28;20218;-66
2024/03/02 03:44:43;;;;;;;6.23;4.53;;;;;21.40;98956.00;;;;2055844;28;20216;-66
2024/03/02 03:45:43;;;;;;;7.90;4.77;;;;;21.40;98951.00;;;;2042239;28;20299;-66
2024/03/02 03:46:44;;;;;;;6.73;4.63;;;;;21.40;98958.00;;;;2037965;28;20228;-66
2024/03/02 03:47:44;;;;;;;9.47;4.93;;;;;21.40;98945.00;;;;2054186;28;20226;-66
2024/03/02 03:48:44;;;;;;;6.80;4.57;;;;;21.40;98913.00;;;;2055323;28;20231;-66
2024/03/02 03:49:45;;;;;;;7.07;4.87;;;;;21.40;98953.00;;;;2056137;28;20259;-66
2024/03/02 03:50:45;;;;;;;7.30;4.50;;;;;21.40;98948.00;;;;2054511;28;20263;-66
2024/03/02 03:51:45;;;;;;;7.83;5.13;;;;;21.40;98950.00;;;;2046233;28;20314;-66
2024/03/02 03:52:46;;;;;;;6.90;4.57;;;;;21.30;98953.00;;;;2055088;28;20219;-66
2024/03/02 03:53:46;;;;;;;5.40;4.23;;;;;21.40;98945.00;;;;2055887;28;20265;-66
2024/03/02 03:54:46;;;;;;;5.50;4.57;;;;;21.40;98944.00;;;;2053124;28;20207;-66
2024/03/02 03:55:49;;;;;;;6.30;4.70;;;;;21.30;98951.00;;;;2054682;28;20216;-66
2024/03/02 03:56:49;;;;;;;6.53;4.40;;;;;21.40;98954.00;;;;2037662;28;20228;-66
2024/03/02 03:57:49;;;;;;;6.70;4.40;;;;;21.30;98873.00;;;;2041889;28;20216;-66
2024/03/02 03:58:50;;;;;;;5.70;4.10;;;;;21.40;98955.00;;;;2055961;28;20211;-66
2024/03/02 03:59:50;;;;;;;7.63;4.33;;;;;21.30;98954.00;;;;2056122;28;20218;-67
2024/03/02 04:00:50;;;;;;;6.57;4.63;;;;;21.30;98944.00;;;;2051782;28;20282;-66
2024/03/02 04:01:51;;;;;;;7.10;4.17;;;;;21.30;98950.00;;;;2046210;28;20230;-66
2024/03/02 04:02:51;;;;;;;8.57;4.80;;;;;21.30;98949.00;;;;2054918;28;20204;-66
2024/03/02 04:03:51;;;;;;;6.20;4.20;;;;;21.30;98959.00;;;;2055853;28;20214;-66
2024/03/02 04:04:52;;;;;;;5.60;4.20;;;;;21.40;98958.00;;;;2042563;28;20208;-66
2024/03/02 04:05:52;;;;;;;6.37;4.03;;;;;21.30;98964.00;;;;2039239;28;20217;-66
2024/03/02 04:06:53;;;;;;;7.07;4.00;;;;;21.30;98943.00;;;;2031632;28;20244;-66
2024/03/02 04:07:53;;;;;;;5.90;3.80;;;;;21.30;98956.00;;;;2051123;28;20204;-66
2024/03/02 04:08:53;;;;;;;7.77;4.23;;;;;21.30;98965.00;;;;2055922;28;20302;-66
2024/03/02 04:09:54;;;;;;;5.37;3.93;;;;;21.30;98958.00;;;;2054614;28;20226;-66
2024/03/02 04:10:54;;;;;;;8.17;4.60;;;;;21.30;98953.00;;;;2055806;28;20247;-66
2024/03/02 04:11:54;;;;;;;5.43;3.90;;;;;21.30;98963.00;;;;2045021;28;20739;-66
2024/03/02 04:12:55;;;;;;;6.60;4.07;;;;;21.30;98954.00;;;;2055892;28;20219;-66
2024/03/02 04:13:55;;;;;;;5.93;4.30;;;;;21.30;98960.00;;;;2047199;28;20242;-66
2024/03/02 04:14:55;;;;;;;5.63;3.80;;;;;21.30;98964.00;;;;2046251;28;20294;-66
2024/03/02 04:15:56;;;;;;;5.40;3.80;;;;;21.30;98965.00;;;;2055881;28;20219;-66
2024/03/02 04:16:56;;;;;;;6.03;4.33;;;;;21.30;98930.00;;;;2045025;28;20234;-66
2024/03/02 04:17:56;;;;;;;6.10;4.00;;;;;21.30;98960.00;;;;2055841;28;20223;-66
2024/03/02 04:18:57;;;;;;;5.40;3.50;;;;;21.30;98956.00;;;;2054992;28;20215;-66
2024/03/02 04:19:57;;;;;;;5.00;3.50;;;;;21.30;98965.00;;;;2054485;28;20242;-66
2024/03/02 04:20:59;;;;;;;5.37;3.90;;;;;21.30;98950.00;;;;2055567;28;20215;-66
2024/03/02 04:21:59;;;;;;;5.82;3.90;;;;;21.30;98956.00;;;;2044888;28;20570;-66
2024/03/02 04:22:59;;;;;;;6.50;4.30;;;;;21.30;98960.00;;;;2055872;28;20223;-66
2024/03/02 04:24:00;;;;;;;6.13;3.87;;;;;21.30;98741.00;;;;2054717;28;20220;-66
2024/03/02 04:25:00;;;;;;;6.90;3.93;;;;;21.30;98959.00;;;;2055321;28;20211;-66
2024/03/02 04:26:01;;;;;;;5.37;3.50;;;;;21.30;98965.00;;;;2055754;28;20216;-66
2024/03/02 04:27:02;;;;;;;5.67;3.40;;;;;21.30;98962.00;;;;2045025;28;20254;-66
2024/03/02 04:28:02;;;;;;;4.60;3.50;;;;;21.30;98963.00;;;;2055884;28;20227;-66
2024/03/02 04:29:03;;;;;;;5.77;3.60;;;;;21.30;98961.00;;;;2054356;28;20226;-66
2024/03/02 04:30:05;;;;;;;5.37;3.47;;;;;21.30;98955.00;;;;2055140;28;20550;-66
2024/03/02 04:31:05;;;;;;;6.70;3.60;;;;;21.30;98959.00;;;;2052547;28;20307;-66
2024/03/02 04:32:05;;;;;;;5.17;3.30;;;;;21.30;98964.00;;;;2037477;28;20634;-66
2024/03/02 04:33:09;;;;;;;5.57;3.33;;;;;21.30;98969.00;;;;2046156;28;20701;-66
2024/03/02 04:34:10;;;;;;;5.85;3.40;;;;;21.30;98968.00;;;;2046965;28;20300;-66
2024/03/02 04:35:10;;;;;;;4.17;3.23;;;;;21.30;98969.00;;;;2047661;28;20219;-66
2024/03/02 04:36:11;;;;;;;3.90;2.93;;;;;21.30;98967.00;;;;2044179;28;20246;-66
2024/03/02 04:37:12;;;;;;;5.23;3.50;;;;;21.30;98968.00;;;;2038260;28;20303;-66
2024/03/02 04:38:12;;;;;;;6.07;3.53;;;;;21.30;98966.00;;;;2045841;28;20217;-66
2024/03/02 04:39:13;;;;;;;4.50;3.03;;;;;21.30;98968.00;;;;2047797;28;20240;-66
2024/03/02 04:40:13;;;;;;;5.70;3.67;;;;;21.30;98936.00;;;;2047881;28;20578;-66
2024/03/02 04:41:14;;;;;;;8.10;3.23;;;;;21.30;98972.00;;;;2046419;28;20347;-66
2024/03/02 04:42:14;;;;;;;5.80;2.97;;;;;21.30;98976.00;;;;2038459;28;20212;-66
2024/03/02 04:43:16;;;;;;;5.30;3.00;;;;;21.30;98970.00;;;;2046940;28;20254;-66
2024/03/02 04:44:16;;;;;;;4.90;3.60;;;;;21.30;98966.00;;;;2045852;28;20231;-66
2024/03/02 04:45:16;;;;;;;4.20;2.57;;;;;21.30;98971.00;;;;2047002;28;20210;-66
2024/03/02 04:46:17;;;;;;;4.97;2.97;;;;;21.30;98972.00;;;;2046321;28;20212;-66
2024/03/02 04:47:17;;;;;;;4.70;2.80;;;;;21.20;98896.00;;;;2038458;28;20235;-67
2024/03/02 04:48:19;;;;;;;4.70;3.07;;;;;21.30;98971.00;;;;2052914;28;20212;-66
2024/03/02 04:49:19;;;;;;;4.55;3.00;;;;;21.20;98970.00;;;;2049639;28;20216;-66
2024/03/02 04:50:19;;;;;;;4.90;2.93;;;;;21.20;98974.00;;;;2045138;28;20699;-66
2024/03/02 04:51:20;;;;;;;4.73;3.10;;;;;21.20;98970.00;;;;2038236;28;20356;-66
2024/03/02 04:52:20;;;;;;;4.27;2.70;;;;;21.20;98979.00;;;;2046323;28;20268;-66
2024/03/02 04:53:20;;;;;;;4.60;2.97;;;;;21.20;98982.00;;;;2045639;28;20223;-66
2024/03/02 04:54:21;;;;;;;5.77;3.47;;;;;21.20;98981.00;;;;2045753;28;20223;-66
2024/03/02 04:56:44;;;;;;;4.22;2.65;;;;;21.20;98983.00;;;;2036736;28;20268;-66
2024/03/02 04:57:44;;;;;;;5.75;3.20;;;;;21.20;98988.00;;;;2048318;28;20307;-67
2024/03/02 04:58:44;;;;;;;5.13;3.33;;;;;21.20;98980.00;;;;2047872;28;20216;-66
2024/03/02 04:59:45;;;;;;;4.40;2.70;;;;;21.20;98986.00;;;;2046285;28;20700;-66
2024/03/02 05:00:46;;;;;;;4.70;3.00;;;;;21.20;98989.00;;;;2043673;28;20226;-66
2024/03/02 05:01:47;;;;;;;4.43;2.90;;;;;21.20;98993.00;;;;2037513;28;20235;-67